Time;durP1;ratioP1;P1;durP2;ratioP2;P2;SDS_P1;SDS_P2;PMS_P1;PMS_P2;Temp;Humidity;BMP_temperature;BMP_pressure;BME280_temperature;BME280_humidity;BME280_pressure;Samples;Min_cycle;Max_cycle;Signal;HPM_P1;HPM_P2
2022/10/28 00:01:14;;;;;;;14.23;3.60;;;18.90;1.00;;;;;;5053208;28;20244;-59
2022/10/28 00:03:43;;;;;;;10.03;3.10;;;19.00;99.90;;;;;;5053231;28;20256;-59
2022/10/28 00:06:12;;;;;;;7.47;2.63;;;19.00;1.00;;;;;;5052919;28;20672;-59
2022/10/28 00:08:40;;;;;;;9.63;3.37;;;19.00;99.90;;;;;;5053363;28;20691;-59
2022/10/28 00:11:09;;;;;;;11.87;3.43;;;19.00;99.90;;;;;;5053199;28;20272;-59
2022/10/28 00:13:37;;;;;;;8.87;3.43;;;18.90;99.90;;;;;;5052792;28;20668;-59
2022/10/28 00:16:07;;;;;;;8.20;3.13;;;18.90;99.90;;;;;;5052991;28;20205;-57
2022/10/28 00:18:33;;;;;;;8.33;3.00;;;18.90;99.90;;;;;;5053013;28;20201;-59
2022/10/28 00:21:02;;;;;;;10.83;3.33;;;19.00;99.90;;;;;;5053280;28;20225;-57
2022/10/28 00:23:28;;;;;;;13.17;4.10;;;18.90;99.90;;;;;;5052984;28;20317;-57
2022/10/28 00:25:55;;;;;;;6.03;3.10;;;18.90;99.90;;;;;;5052867;28;20632;-57
2022/10/28 00:28:22;;;;;;;8.57;3.30;;;18.80;99.90;;;;;;5052802;28;20206;-59
2022/10/28 00:30:50;;;;;;;9.20;3.40;;;18.90;99.90;;;;;;5052868;28;20229;-57
2022/10/28 00:33:17;;;;;;;9.10;3.00;;;18.80;99.90;;;;;;5051644;28;20393;-59
2022/10/28 00:35:43;;;;;;;6.77;2.67;;;18.80;99.90;;;;;;5052809;28;20271;-59
2022/10/28 00:38:10;;;;;;;8.77;2.80;;;18.80;99.90;;;;;;5052360;28;20665;-60
2022/10/28 00:40:36;;;;;;;8.63;3.00;;;18.90;99.90;;;;;;5052792;28;20221;-59
2022/10/28 00:43:03;;;;;;;9.57;3.00;;;18.90;99.90;;;;;;5052453;28;20290;-59
2022/10/28 00:45:30;;;;;;;14.43;4.03;;;19.00;99.90;;;;;;5052422;28;20236;-57
2022/10/28 00:48:00;;;;;;;11.87;3.20;;;19.00;99.90;;;;;;5052277;28;20206;-57
2022/10/28 00:50:40;;;;;;;7.07;3.40;;;19.00;99.90;;;;;;5052250;28;20229;-57
2022/10/28 00:53:11;;;;;;;12.90;3.33;;;19.00;99.90;;;;;;5052923;28;20288;-59
2022/10/28 00:55:37;;;;;;;8.67;2.73;;;19.00;99.90;;;;;;5052210;28;20255;-59
2022/10/28 00:58:07;;;;;;;7.70;2.77;;;19.00;99.90;;;;;;5051884;28;20256;-59
2022/10/28 01:00:34;;;;;;;7.27;3.60;;;19.00;99.90;;;;;;5052479;28;20225;-59
2022/10/28 01:03:02;;;;;;;13.23;3.30;;;19.00;99.90;;;;;;5052481;28;20229;-59
2022/10/28 01:05:31;;;;;;;7.43;2.70;;;19.00;99.90;;;;;;5052119;28;20209;-59
2022/10/28 01:08:00;;;;;;;7.97;2.83;;;19.00;99.90;;;;;;5052008;28;20228;-58
2022/10/28 01:10:41;;;;;;;9.23;3.10;;;19.10;1.00;;;;;;5052033;28;20287;-56
2022/10/28 01:13:12;;;;;;;10.30;3.07;;;19.10;1.00;;;;;;5052256;28;20632;-57
2022/10/28 01:15:49;;;;;;;9.03;2.83;;;19.20;1.00;;;;;;5052336;28;20620;-59
2022/10/28 01:18:25;;;;;;;8.20;2.80;;;19.20;99.90;;;;;;5051942;28;20209;-57
2022/10/28 01:21:27;;;;;;;7.23;2.73;;;19.20;99.90;;;;;;5051895;28;20281;-58
2022/10/28 01:24:06;;;;;;;10.90;3.07;;;19.20;99.90;;;;;;5052092;28;20222;-59
2022/10/28 01:26:56;;;;;;;10.37;2.57;;;19.30;16.50;;;;;;5051685;28;20201;-59
2022/10/28 01:29:46;;;;;;;5.17;2.73;;;19.40;99.90;;;;;;5051717;28;20386;-60
2022/10/28 01:32:22;;;;;;;7.63;2.47;;;19.40;99.90;;;;;;5052064;28;20256;-56
2022/10/28 01:34:59;;;;;;;10.50;3.23;;;19.50;99.90;;;;;;5051423;28;20205;-57
2022/10/28 01:37:33;;;;;;;9.93;2.80;;;19.50;99.90;;;;;;5051777;28;20201;-58
2022/10/28 01:40:06;;;;;;;7.60;2.70;;;19.50;14.80;;;;;;5051528;28;20193;-59
2022/10/28 01:42:39;;;;;;;10.73;2.83;;;19.50;99.90;;;;;;5051949;28;20310;-57
2022/10/28 01:45:13;;;;;;;10.93;2.93;;;19.60;1.00;;;;;;5055392;28;20699;-58
2022/10/28 01:47:46;;;;;;;7.77;3.20;;;19.60;1.00;;;;;;5056086;28;20201;-55
2022/10/28 01:50:18;;;;;;;7.37;2.83;;;19.50;1.00;;;;;;5055708;28;20230;-55
2022/10/28 01:52:48;;;;;;;10.23;3.00;;;19.50;1.00;;;;;;5055680;28;20207;-56
2022/10/28 01:55:18;;;;;;;6.23;2.53;;;19.50;1.00;;;;;;5055937;28;20201;-57
2022/10/28 01:57:47;;;;;;;10.63;3.20;;;19.50;1.00;;;;;;5055780;28;20279;-58
2022/10/28 02:00:14;;;;;;;9.87;2.73;;;19.40;1.00;;;;;;5055452;28;20225;-58
2022/10/28 02:02:44;;;;;;;9.93;2.80;;;19.40;1.00;;;;;;5055600;28;20278;-60
2022/10/28 02:05:40;;;;;;;9.57;3.17;;;19.40;1.00;;;;;;5055779;28;20213;-57
2022/10/28 02:08:40;;;;;;;9.67;3.10;;;19.40;1.00;;;;;;5055608;28;20205;-59
2022/10/28 02:11:41;;;;;;;5.23;2.50;;;19.40;1.00;;;;;;5054840;28;20302;-59
2022/10/28 02:14:22;;;;;;;9.77;3.53;;;19.40;1.00;;;;;;5055117;28;20259;-59
2022/10/28 02:16:54;;;;;;;9.83;2.77;;;19.40;1.00;;;;;;5054940;28;20572;-59
2022/10/28 02:19:31;;;;;;;12.27;2.87;;;19.30;99.90;;;;;;5055337;28;20206;-57
2022/10/28 02:22:09;;;;;;;6.33;2.77;;;19.30;54.10;;;;;;5055505;28;20275;-59
2022/10/28 02:24:43;;;;;;;10.03;2.73;;;19.30;99.90;;;;;;5055122;28;20233;-59
2022/10/28 02:27:29;;;;;;;10.00;3.13;;;19.30;99.90;;;;;;5055062;28;20212;-58
2022/10/28 02:30:01;;;;;;;10.03;2.60;;;19.30;1.00;;;;;;5054817;28;20709;-57
2022/10/28 02:32:33;;;;;;;10.43;3.17;;;19.30;1.00;;;;;;5055146;28;20236;-57
2022/10/28 02:35:03;;;;;;;10.97;2.87;;;19.30;1.00;;;;;;5055173;28;20210;-56
2022/10/28 02:37:33;;;;;;;4.80;2.57;;;19.30;1.00;;;;;;5054948;28;20202;-56
2022/10/28 02:40:04;;;;;;;14.47;3.23;;;19.20;1.00;;;;;;5054532;28;20240;-55
2022/10/28 02:42:34;;;;;;;8.60;2.50;;;19.10;1.00;;;;;;5054811;28;20275;-56
2022/10/28 02:45:06;;;;;;;9.20;2.63;;;19.10;1.00;;;;;;5054916;28;20213;-55
2022/10/28 02:47:35;;;;;;;8.60;2.90;;;19.10;1.00;;;;;;5054527;28;20214;-57
2022/10/28 02:50:06;;;;;;;12.03;2.63;;;19.10;99.90;;;;;;5054603;28;20206;-57
2022/10/28 02:52:34;;;;;;;9.70;2.50;;;19.10;1.00;;;;;;5054660;28;20212;-55
2022/10/28 02:55:03;;;;;;;8.63;2.73;;;19.10;1.00;;;;;;5053583;28;20217;-57
2022/10/28 02:57:32;;;;;;;9.37;3.40;;;19.10;1.00;;;;;;5053863;28;20209;-57
2022/10/28 03:00:01;;;;;;;6.50;2.60;;;19.00;92.60;;;;;;5053735;28;20213;-57
2022/10/28 03:02:28;;;;;;;8.90;3.43;;;19.00;99.90;;;;;;5054503;28;20252;-55
2022/10/28 03:04:55;;;;;;;12.40;2.70;;;19.00;99.90;;;;;;5054416;28;20708;-57
2022/10/28 03:07:23;;;;;;;10.03;2.70;;;19.00;69.80;;;;;;5053934;28;20209;-57
2022/10/28 03:09:50;;;;;;;12.43;2.63;;;19.00;26.70;;;;;;5054259;28;20236;-54
2022/10/28 03:12:17;;;;;;;7.73;2.90;;;18.90;99.90;;;;;;5054123;28;20296;-55
2022/10/28 03:14:44;;;;;;;9.77;2.77;;;18.90;99.90;;;;;;5054481;28;20206;-55
2022/10/28 03:17:10;;;;;;;9.23;3.37;;;18.90;99.90;;;;;;5054155;28;20292;-55
2022/10/28 03:19:37;;;;;;;11.83;2.90;;;18.80;99.90;;;;;;5054130;28;20629;-57
2022/10/28 03:22:03;;;;;;;10.23;2.83;;;18.80;99.90;;;;;;5053830;28;20708;-56
2022/10/28 03:24:31;;;;;;;9.03;2.97;;;18.80;99.90;;;;;;5054170;28;20225;-56
2022/10/28 03:26:58;;;;;;;7.90;3.40;;;18.70;99.90;;;;;;5054008;28;20267;-56
2022/10/28 03:29:25;;;;;;;9.73;2.93;;;18.70;1.00;;;;;;5053897;28;20295;-55
2022/10/28 03:31:51;;;;;;;9.53;2.27;;;18.70;1.00;;;;;;5053878;28;20578;-56
2022/10/28 03:34:18;;;;;;;9.87;2.77;;;18.70;1.00;;;;;;5053802;28;20260;-56
2022/10/28 03:36:45;;;;;;;5.63;3.03;;;18.70;99.90;;;;;;5053885;28;20283;-54
2022/10/28 03:39:11;;;;;;;8.50;3.03;;;18.60;1.00;;;;;;5053857;28;20618;-55
2022/10/28 03:41:39;;;;;;;5.77;2.93;;;18.60;1.00;;;;;;5053633;28;20765;-55
2022/10/28 03:44:06;;;;;;;8.30;3.03;;;18.80;99.90;;;;;;5053059;28;20226;-53
2022/10/28 03:46:32;;;;;;;9.43;2.87;;;18.90;99.90;;;;;;5053541;28;20232;-55
2022/10/28 03:48:59;;;;;;;10.97;2.93;;;18.80;99.90;;;;;;5053636;28;20210;-55
2022/10/28 03:51:26;;;;;;;10.93;3.00;;;18.80;90.90;;;;;;5053734;28;20229;-55
2022/10/28 03:53:52;;;;;;;11.07;2.93;;;18.80;99.90;;;;;;5053655;28;20206;-55
2022/10/28 03:56:20;;;;;;;11.30;2.80;;;18.70;99.90;;;;;;5053133;28;20210;-57
2022/10/28 03:58:49;;;;;;;10.93;3.07;;;18.70;99.90;;;;;;5053381;28;20205;-57
2022/10/28 04:01:16;;;;;;;10.70;2.63;;;18.60;1.00;;;;;;5053357;28;20230;-55
2022/10/28 04:03:42;;;;;;;8.30;3.20;;;18.60;1.00;;;;;;5053267;28;20230;-55
2022/10/28 04:06:09;;;;;;;9.00;3.50;;;18.50;27.30;;;;;;5053154;28;20209;-57
2022/10/28 04:08:36;;;;;;;10.17;3.03;;;18.50;99.90;;;;;;5053241;28;20301;-57
2022/10/28 04:11:03;;;;;;;6.20;2.70;;;18.40;99.90;;;;;;5053019;28;20283;-57
2022/10/28 04:13:30;;;;;;;14.40;3.13;;;18.40;1.00;;;;;;5053403;28;20205;-58
2022/10/28 04:15:58;;;;;;;10.90;3.20;;;18.30;86.10;;;;;;5052764;28;20700;-59
2022/10/28 04:18:25;;;;;;;10.77;3.63;;;18.30;99.90;;;;;;5053093;28;20217;-56
2022/10/28 04:20:51;;;;;;;8.20;2.90;;;18.30;99.90;;;;;;5052876;28;20283;-53
2022/10/28 04:23:18;;;;;;;8.60;3.03;;;18.40;99.90;;;;;;5053023;28;20256;-57
2022/10/28 04:25:45;;;;;;;10.70;3.13;;;18.40;90.10;;;;;;5052316;28;20201;-57
2022/10/28 04:28:12;;;;;;;10.87;3.17;;;18.40;99.90;;;;;;5052609;28;20618;-54
2022/10/28 04:30:38;;;;;;;12.27;3.17;;;18.40;99.90;;;;;;5052802;28;20630;-57
2022/10/28 04:33:06;;;;;;;9.17;3.10;;;18.40;99.90;;;;;;5052973;28;20206;-54
2022/10/28 04:35:33;;;;;;;10.77;3.27;;;18.30;14.50;;;;;;5052792;28;20213;-54
2022/10/28 04:38:00;;;;;;;10.67;3.07;;;18.40;50.30;;;;;;5052715;28;20216;-53
2022/10/28 04:40:27;;;;;;;8.97;2.63;;;18.40;45.70;;;;;;5052705;28;20229;-55
2022/10/28 04:42:53;;;;;;;12.47;3.20;;;18.40;10.10;;;;;;5052579;28;20625;-56
2022/10/28 04:45:20;;;;;;;9.27;3.40;;;18.40;22.00;;;;;;5052501;28;20230;-53
2022/10/28 04:47:46;;;;;;;9.00;3.30;;;18.40;99.90;;;;;;5052495;28;20630;-54
2022/10/28 04:50:15;;;;;;;12.70;3.33;;;18.30;99.90;;;;;;5052463;28;20222;-58
2022/10/28 04:52:42;;;;;;;15.20;3.60;;;18.20;99.90;;;;;;5049763;28;20213;-59
2022/10/28 04:55:09;;;;;;;9.47;3.90;;;18.20;99.90;;;;;;5051559;28;20194;-60
2022/10/28 04:57:36;;;;;;;13.47;4.70;;;18.20;99.90;;;;;;5051526;28;20213;-60
2022/10/28 05:00:02;;;;;;;9.87;3.47;;;18.30;99.90;;;;;;5051738;28;20579;-60
2022/10/28 05:02:29;;;;;;;10.53;3.50;;;18.20;1.00;;;;;;5051630;28;20806;-60
2022/10/28 05:04:59;;;;;;;12.93;3.43;;;18.20;1.00;;;;;;5051794;28;20708;-60
2022/10/28 05:07:27;;;;;;;10.93;3.67;;;18.20;1.00;;;;;;5051964;28;20205;-60
2022/10/28 05:09:53;;;;;;;14.40;3.80;;;18.20;1.00;;;;;;5051821;28;20217;-60
2022/10/28 05:12:20;;;;;;;11.33;3.60;;;18.20;1.00;;;;;;5051954;28;20205;-59
2022/10/28 05:14:47;;;;;;;12.00;3.63;;;18.20;1.00;;;;;;5051804;28;20209;-60
2022/10/28 05:17:13;;;;;;;12.23;3.37;;;18.30;1.00;;;;;;5051661;28;20266;-60
2022/10/28 05:19:41;;;;;;;7.90;2.93;;;18.30;99.90;;;;;;5050831;28;20279;-60
2022/10/28 05:22:07;;;;;;;16.93;3.80;;;18.40;99.90;;;;;;5051922;28;20229;-60
2022/10/28 05:24:35;;;;;;;10.93;3.60;;;18.40;1.00;;;;;;5051098;28;20287;-63
2022/10/28 05:27:02;;;;;;;9.87;2.97;;;18.40;99.90;;;;;;5051362;28;20209;-62
2022/10/28 05:29:28;;;;;;;8.40;3.07;;;18.40;99.90;;;;;;5051082;28;20707;-60
2022/10/28 05:31:55;;;;;;;11.03;3.50;;;18.40;1.00;;;;;;5051772;28;20272;-63
2022/10/28 05:34:22;;;;;;;17.27;3.70;;;18.30;1.00;;;;;;5051473;28;20255;-60
2022/10/28 05:36:49;;;;;;;9.73;3.23;;;18.30;1.00;;;;;;5051125;28;20205;-57
2022/10/28 05:39:16;;;;;;;8.10;2.97;;;18.20;20.20;;;;;;5051556;28;20213;-59
2022/10/28 05:41:44;;;;;;;16.17;3.87;;;18.20;10.70;;;;;;5051262;28;20225;-59
2022/10/28 05:44:11;;;;;;;9.43;3.37;;;18.20;99.90;;;;;;5051437;28;20287;-60
2022/10/28 05:46:37;;;;;;;12.30;3.60;;;18.20;99.90;;;;;;5050889;28;20236;-57
2022/10/28 05:49:04;;;;;;;12.70;4.50;;;18.20;99.90;;;;;;5051547;28;20205;-60
2022/10/28 05:51:31;;;;;;;9.13;3.10;;;18.10;99.90;;;;;;5050819;28;20716;-59
2022/10/28 05:53:57;;;;;;;14.43;3.60;;;18.20;99.90;;;;;;5051360;28;20202;-59
2022/10/28 05:56:24;;;;;;;13.23;3.30;;;18.10;99.90;;;;;;5050695;28;20221;-57
2022/10/28 05:58:52;;;;;;;10.17;2.93;;;18.10;99.90;;;;;;5051662;28;20236;-58
2022/10/28 06:01:19;;;;;;;11.70;4.17;;;18.10;99.90;;;;;;5051017;28;20229;-60
2022/10/28 06:03:45;;;;;;;8.13;4.00;;;18.10;99.90;;;;;;5051331;28;20213;-57
2022/10/28 06:06:12;;;;;;;9.23;3.47;;;18.10;99.90;;;;;;5051267;28;20331;-57
2022/10/28 06:08:39;;;;;;;14.33;3.73;;;18.10;99.90;;;;;;5050794;28;20214;-56
2022/10/28 06:11:05;;;;;;;13.03;3.30;;;18.20;99.90;;;;;;5051415;28;20295;-57
2022/10/28 06:13:32;;;;;;;8.53;3.53;;;18.20;99.90;;;;;;5050961;28;20201;-63
2022/10/28 06:16:00;;;;;;;8.10;3.27;;;18.20;99.90;;;;;;5051302;28;20210;-60
2022/10/28 06:18:27;;;;;;;15.33;3.07;;;18.20;99.90;;;;;;5050579;28;20213;-63
2022/10/28 06:20:55;;;;;;;13.10;3.77;;;18.20;99.90;;;;;;5051107;28;20581;-63
2022/10/28 06:23:22;;;;;;;13.00;3.70;;;18.20;99.90;;;;;;5050694;28;20213;-64
2022/10/28 06:25:49;;;;;;;9.90;3.63;;;18.20;99.90;;;;;;5051132;28;20221;-64
2022/10/28 06:28:15;;;;;;;10.53;3.33;;;18.20;99.90;;;;;;5050116;28;20205;-63
2022/10/28 06:30:42;;;;;;;11.57;3.57;;;18.20;99.90;;;;;;5053447;28;20226;-64
2022/10/28 06:33:10;;;;;;;8.83;3.80;;;18.10;99.90;;;;;;5054743;28;20729;-64
2022/10/28 06:35:37;;;;;;;13.43;3.50;;;18.00;99.90;;;;;;5054304;28;20256;-63
2022/10/28 06:38:03;;;;;;;8.87;3.33;;;18.10;1.00;;;;;;5054796;28;20216;-60
2022/10/28 06:40:30;;;;;;;8.67;3.37;;;18.10;99.90;;;;;;5054344;28;20226;-60
2022/10/28 06:43:01;;;;;;;15.70;4.13;;;18.20;99.90;;;;;;5054785;28;20214;-65
2022/10/28 06:45:28;;;;;;;12.73;3.20;;;18.10;1.00;;;;;;5054170;28;20229;-64
2022/10/28 06:47:56;;;;;;;11.63;3.50;;;18.10;1.00;;;;;;5053886;28;20216;-63
2022/10/28 06:50:24;;;;;;;10.17;3.50;;;18.10;1.00;;;;;;5053636;28;20320;-61
2022/10/28 06:52:51;;;;;;;8.40;3.47;;;18.10;1.00;;;;;;5053111;28;20213;-63
2022/10/28 06:55:18;;;;;;;13.13;3.33;;;18.00;1.00;;;;;;5046662;28;20210;-63
2022/10/28 06:57:44;;;;;;;11.57;3.67;;;18.00;1.00;;;;;;5053768;28;20209;-60
2022/10/28 07:00:12;;;;;;;12.87;4.10;;;18.00;1.00;;;;;;5053631;28;20238;-62
2022/10/28 07:02:39;;;;;;;11.03;3.63;;;18.00;1.00;;;;;;5053295;28;20206;-61
2022/10/28 07:05:07;;;;;;;14.93;3.87;;;18.10;1.00;;;;;;5053341;28;20236;-61
2022/10/28 07:07:36;;;;;;;12.80;3.30;;;18.00;1.00;;;;;;5052883;28;20213;-61
2022/10/28 07:10:04;;;;;;;11.03;3.90;;;18.00;1.00;;;;;;5053037;28;20296;-59
2022/10/28 07:12:30;;;;;;;10.43;3.33;;;18.10;1.00;;;;;;5053253;28;20205;-62
2022/10/28 07:14:57;;;;;;;12.33;3.40;;;18.10;1.00;;;;;;5053437;28;20598;-62
2022/10/28 07:17:24;;;;;;;12.13;3.87;;;18.10;38.20;;;;;;5052772;28;20209;-61
2022/10/28 07:19:50;;;;;;;12.90;4.30;;;18.00;51.50;;;;;;5053482;28;20216;-63
2022/10/28 07:22:17;;;;;;;20.97;3.30;;;18.10;99.90;;;;;;5053469;28;20208;-64
2022/10/28 07:24:45;;;;;;;7.33;3.63;;;18.10;99.90;;;;;;5052714;28;20221;-61
2022/10/28 07:27:12;;;;;;;8.90;2.80;;;18.10;99.90;;;;;;5053037;28;20210;-61
2022/10/28 07:29:39;;;;;;;13.13;4.00;;;18.10;99.90;;;;;;5052854;28;20236;-62
2022/10/28 07:32:05;;;;;;;10.87;3.70;;;18.20;99.90;;;;;;5052881;28;20237;-56
2022/10/28 07:34:32;;;;;;;10.93;3.47;;;18.20;99.90;;;;;;5052387;28;20665;-57
2022/10/28 07:36:59;;;;;;;11.33;3.67;;;18.20;99.90;;;;;;5052952;28;20255;-61
2022/10/28 07:39:26;;;;;;;12.20;3.43;;;18.30;99.90;;;;;;5052695;28;20206;-60
2022/10/28 07:41:54;;;;;;;11.10;3.90;;;18.40;99.90;;;;;;5052116;28;20696;-64
2022/10/28 07:44:20;;;;;;;9.77;3.63;;;18.40;99.90;;;;;;5052150;28;20214;-66
2022/10/28 07:46:49;;;;;;;16.07;4.37;;;18.40;99.90;;;;;;5052567;28;20263;-65
2022/10/28 07:49:17;;;;;;;9.80;3.57;;;18.60;22.80;;;;;;5052865;28;20213;-65
2022/10/28 07:51:43;;;;;;;9.17;3.87;;;18.70;39.80;;;;;;5052385;28;20321;-64
2022/10/28 07:54:10;;;;;;;10.17;3.47;;;18.70;14.60;;;;;;5052522;28;20209;-56
2022/10/28 07:56:37;;;;;;;11.83;3.50;;;18.80;26.50;;;;;;5052272;28;20213;-64
2022/10/28 07:59:05;;;;;;;13.60;3.50;;;18.90;19.70;;;;;;5052579;28;20252;-62
2022/10/28 08:01:32;;;;;;;11.03;3.60;;;18.90;10.20;;;;;;5044312;28;20232;-60
2022/10/28 08:03:58;;;;;;;11.60;3.37;;;18.90;1.00;;;;;;5052047;28;20206;-60
2022/10/28 08:06:25;;;;;;;11.20;4.00;;;18.90;1.00;;;;;;5051997;28;20765;-60
2022/10/28 08:08:55;;;;;;;12.70;3.90;;;18.90;1.00;;;;;;5052220;28;20601;-60
2022/10/28 08:11:22;;;;;;;12.40;3.80;;;18.90;1.00;;;;;;5052503;28;20667;-59
2022/10/28 08:13:49;;;;;;;16.30;3.60;;;18.90;1.00;;;;;;5052209;28;20259;-58
2022/10/28 08:16:18;;;;;;;15.40;3.87;;;19.00;1.00;;;;;;5052134;28;20206;-62
2022/10/28 08:18:45;;;;;;;12.40;4.60;;;19.00;1.00;;;;;;5051804;28;20217;-55
2022/10/28 08:21:13;;;;;;;10.20;3.60;;;19.00;1.00;;;;;;5051686;28;20795;-60
2022/10/28 08:23:40;;;;;;;12.53;3.70;;;19.00;1.00;;;;;;5052099;28;20251;-61
2022/10/28 08:26:07;;;;;;;15.10;3.70;;;19.00;1.00;;;;;;5050772;28;20320;-59
2022/10/28 08:28:34;;;;;;;11.50;4.00;;;19.00;1.00;;;;;;5051887;28;20683;-57
2022/10/28 08:31:02;;;;;;;9.73;3.47;;;19.00;1.00;;;;;;5051652;28;20712;-54
2022/10/28 08:33:31;;;;;;;12.63;3.67;;;19.00;1.00;;;;;;5052217;28;20229;-60
2022/10/28 08:36:04;;;;;;;13.27;4.13;;;19.00;1.00;;;;;;5051103;28;20328;-59
2022/10/28 08:38:31;;;;;;;12.77;3.80;;;19.00;1.00;;;;;;5051846;28;20209;-57
2022/10/28 08:41:05;;;;;;;9.10;3.97;;;19.00;1.00;;;;;;5051546;28;20234;-59
2022/10/28 08:43:42;;;;;;;10.63;4.57;;;19.00;1.00;;;;;;5052178;28;20571;-56
2022/10/28 08:46:15;;;;;;;9.33;2.73;;;19.00;1.00;;;;;;5051153;28;20229;-59
2022/10/28 08:48:43;;;;;;;14.17;3.90;;;19.00;1.00;;;;;;5051320;28;20275;-59
2022/10/28 08:51:16;;;;;;;19.13;3.93;;;19.10;1.00;;;;;;5051290;28;20233;-58
2022/10/28 08:53:47;;;;;;;16.13;3.50;;;19.10;1.00;;;;;;5050655;28;20209;-57
2022/10/28 08:56:19;;;;;;;12.70;3.77;;;19.20;1.00;;;;;;5051274;28;20201;-55
2022/10/28 08:58:48;;;;;;;10.47;3.63;;;19.30;99.90;;;;;;5051267;28;20206;-59
2022/10/28 09:01:24;;;;;;;7.77;3.30;;;19.30;99.90;;;;;;5050415;28;20225;-61
2022/10/28 09:03:53;;;;;;;15.90;3.50;;;19.40;99.90;;;;;;5041603;28;20208;-61
2022/10/28 09:06:20;;;;;;;10.90;3.07;;;19.40;99.90;;;;;;5051064;28;20312;-60
2022/10/28 09:08:49;;;;;;;10.93;3.67;;;19.50;99.90;;;;;;5051200;28;20308;-58
2022/10/28 09:11:36;;;;;;;11.27;3.53;;;19.70;99.90;;;;;;5051122;28;20712;-60
2022/10/28 09:14:15;;;;;;;8.90;4.00;;;19.80;6.20;;;;;;5050823;28;20628;-60
2022/10/28 09:16:46;;;;;;;9.40;3.80;;;19.90;1.00;;;;;;5051215;28;20564;-60
2022/10/28 09:19:31;;;;;;;12.77;3.60;;;20.00;1.00;;;;;;5051554;28;20209;-55
2022/10/28 09:22:08;;;;;;;14.77;3.63;;;20.10;99.90;;;;;;5050964;28;20233;-61
2022/10/28 09:24:45;;;;;;;12.77;3.73;;;20.10;99.90;;;;;;5050990;28;21083;-60
2022/10/28 09:27:18;;;;;;;8.60;3.17;;;20.20;99.90;;;;;;5050530;28;20270;-59
2022/10/28 09:29:51;;;;;;;9.53;3.63;;;20.40;99.90;;;;;;5051149;28;20636;-54
2022/10/28 09:32:24;;;;;;;9.83;3.37;;;20.50;1.00;;;;;;5050477;28;20214;-59
2022/10/28 09:34:58;;;;;;;10.53;3.67;;;20.60;79.10;;;;;;5050904;28;20209;-63
2022/10/28 09:37:29;;;;;;;11.40;3.60;;;20.80;99.90;;;;;;5050589;28;20308;-62
2022/10/28 09:39:59;;;;;;;12.07;3.03;;;20.90;99.90;;;;;;5051012;28;20237;-64
2022/10/28 09:42:29;;;;;;;15.77;4.00;;;21.10;1.00;;;;;;5050432;28;20213;-65
2022/10/28 09:45:02;;;;;;;8.27;3.70;;;21.20;99.90;;;;;;5050685;28;20272;-66
2022/10/28 09:47:34;;;;;;;12.17;3.90;;;21.40;1.00;;;;;;5050297;28;20213;-65
2022/10/28 09:50:07;;;;;;;14.37;3.67;;;21.50;1.00;;;;;;5050151;28;20255;-64
2022/10/28 09:52:38;;;;;;;7.33;3.13;;;21.70;99.90;;;;;;5050913;28;20209;-65
2022/10/28 09:55:15;;;;;;;11.67;3.37;;;21.70;99.90;;;;;;5050348;28;20578;-65
2022/10/28 09:57:43;;;;;;;17.23;3.33;;;21.70;99.90;;;;;;5050767;28;20213;-64
2022/10/28 10:00:12;;;;;;;8.80;3.30;;;21.80;1.00;;;;;;5050639;28;20213;-65
2022/10/28 10:02:39;;;;;;;17.37;3.50;;;21.90;99.90;;;;;;5051439;28;20205;-65
2022/10/28 10:05:14;;;;;;;12.47;2.70;;;21.90;1.00;;;;;;5051978;28;20221;-66
2022/10/28 10:07:45;;;;;;;11.20;3.40;;;22.10;17.50;;;;;;5053442;28;20205;-65
2022/10/28 10:10:15;;;;;;;8.57;3.20;;;22.10;99.90;;;;;;5054273;28;20233;-65
2022/10/28 10:12:42;;;;;;;11.53;3.27;;;21.90;99.90;;;;;;5054961;28;20205;-65
2022/10/28 10:15:18;;;;;;;14.23;3.03;;;21.80;1.00;;;;;;5054502;28;20668;-64
2022/10/28 10:17:47;;;;;;;9.07;3.50;;;21.80;1.00;;;;;;5054464;28;20263;-63
2022/10/28 10:20:17;;;;;;;11.93;3.27;;;21.80;1.00;;;;;;5054479;28;20642;-63
2022/10/28 10:22:46;;;;;;;13.57;3.30;;;21.90;1.00;;;;;;5053575;28;20210;-64
2022/10/28 10:25:28;;;;;;;9.17;3.13;;;22.00;1.00;;;;;;5054396;28;20647;-64
2022/10/28 10:27:57;;;;;;;14.13;3.60;;;22.10;99.90;;;;;;5053242;28;20268;-63
2022/10/28 10:30:28;;;;;;;11.17;3.50;;;22.00;99.90;;;;;;5052243;28;20237;-62
2022/10/28 10:32:55;;;;;;;16.17;4.07;;;21.90;99.90;;;;;;5053712;28;20632;-65
2022/10/28 10:35:28;;;;;;;7.03;3.03;;;21.90;99.90;;;;;;5053725;28;20267;-65
2022/10/28 10:37:58;;;;;;;10.17;3.03;;;22.00;99.90;;;;;;5053906;28;20647;-64
2022/10/28 10:40:29;;;;;;;14.83;4.03;;;22.10;99.90;;;;;;5053157;28;20613;-63
2022/10/28 10:43:13;;;;;;;11.33;3.30;;;22.10;99.90;;;;;;5052830;28;20288;-63
2022/10/28 10:45:40;;;;;;;11.97;3.27;;;22.00;99.90;;;;;;5052890;28;20259;-65
2022/10/28 10:48:12;;;;;;;16.87;3.40;;;22.10;99.90;;;;;;5053862;28;20205;-57
2022/10/28 10:50:42;;;;;;;12.90;3.50;;;22.10;99.90;;;;;;5053406;28;20250;-59
2022/10/28 10:53:19;;;;;;;12.60;3.87;;;22.30;99.20;;;;;;5054007;28;20210;-61
2022/10/28 10:55:50;;;;;;;18.37;4.07;;;22.30;12.10;;;;;;5053057;28;20212;-61
2022/10/28 10:58:20;;;;;;;8.77;3.30;;;22.40;1.00;;;;;;5052823;28;20263;-59
2022/10/28 11:00:49;;;;;;;12.37;3.27;;;22.40;1.00;;;;;;5053738;28;20225;-62
2022/10/28 11:03:20;;;;;;;10.50;3.00;;;22.50;1.00;;;;;;5053424;28;20209;-63
2022/10/28 11:05:51;;;;;;;13.40;3.03;;;22.50;1.00;;;;;;5051459;28;20217;-61
2022/10/28 11:08:31;;;;;;;10.87;3.73;;;22.60;1.00;;;;;;5052253;28;20205;-63
2022/10/28 11:11:12;;;;;;;10.50;3.60;;;22.70;1.00;;;;;;5053819;28;20229;-61
2022/10/28 11:13:40;;;;;;;12.43;3.23;;;22.90;1.00;;;;;;5052823;28;20263;-62
2022/10/28 11:16:17;;;;;;;10.37;3.60;;;23.00;1.00;;;;;;5052018;28;20205;-61
2022/10/28 11:18:46;;;;;;;12.40;3.73;;;23.20;1.00;;;;;;5053193;28;20210;-62
2022/10/28 11:21:49;;;;;;;11.27;2.90;;;23.30;1.00;;;;;;5052938;28;20704;-60
2022/10/28 11:24:44;;;;;;;15.43;3.40;;;23.30;1.00;;;;;;5052905;28;20209;-62
2022/10/28 11:27:18;;;;;;;13.80;3.50;;;23.40;1.00;;;;;;5052904;28;20218;-60
2022/10/28 11:29:46;;;;;;;13.57;3.03;;;23.40;1.00;;;;;;5052978;28;20313;-61
2022/10/28 11:32:36;;;;;;;7.47;3.00;;;23.60;1.00;;;;;;5053145;28;20637;-64
2022/10/28 11:35:32;;;;;;;8.67;2.87;;;23.70;1.00;;;;;;5052623;28;20217;-62
2022/10/28 11:38:12;;;;;;;14.67;2.80;;;23.90;1.00;;;;;;5050596;28;20251;-61
2022/10/28 11:40:55;;;;;;;11.50;3.13;;;23.90;99.90;;;;;;5052626;28;20225;-58
2022/10/28 11:43:30;;;;;;;13.37;3.10;;;23.70;99.90;;;;;;5052946;28;20680;-59
2022/10/28 11:46:05;;;;;;;11.50;2.87;;;23.70;99.90;;;;;;5051858;28;20229;-61
2022/10/28 11:48:54;;;;;;;10.73;2.90;;;23.70;99.90;;;;;;5045377;28;20263;-59
2022/10/28 11:51:33;;;;;;;10.50;2.83;;;23.60;99.90;;;;;;5040744;28;20234;-60
2022/10/28 11:54:30;;;;;;;16.07;3.20;;;23.70;99.90;;;;;;5052728;28;20209;-61
2022/10/28 11:57:05;;;;;;;14.77;2.87;;;23.70;99.90;;;;;;5051951;28;20198;-64
2022/10/28 12:00:07;;;;;;;15.40;3.27;;;23.80;99.90;;;;;;5053006;28;20270;-59
2022/10/28 12:02:55;;;;;;;13.37;2.90;;;23.90;99.90;;;;;;5051502;28;20201;-60
2022/10/28 12:05:28;;;;;;;10.70;3.40;;;23.80;99.90;;;;;;5052051;28;20209;-62
2022/10/28 12:08:09;;;;;;;9.37;2.90;;;23.70;99.90;;;;;;5052122;28;20202;-61
2022/10/28 12:10:45;;;;;;;12.07;3.03;;;23.80;99.90;;;;;;5052114;28;20233;-57
2022/10/28 12:13:24;;;;;;;9.00;2.87;;;23.90;99.90;;;;;;5052281;28;20213;-61
2022/10/28 12:15:59;;;;;;;9.73;3.30;;;23.90;99.90;;;;;;5051827;28;20251;-62
2022/10/28 12:18:30;;;;;;;12.97;3.27;;;24.00;99.90;;;;;;5052162;28;20231;-62
2022/10/28 12:21:02;;;;;;;9.03;3.10;;;24.00;99.90;;;;;;5052321;28;20232;-59
2022/10/28 12:23:31;;;;;;;14.10;3.20;;;24.10;99.90;;;;;;5052109;28;20205;-60
2022/10/28 12:26:00;;;;;;;8.60;3.17;;;24.30;99.90;;;;;;5051554;28;20232;-61
2022/10/28 12:28:33;;;;;;;11.57;3.17;;;24.30;99.90;;;;;;5051842;28;20210;-57
2022/10/28 12:31:01;;;;;;;16.90;3.27;;;24.20;99.90;;;;;;5052034;28;20622;-58
2022/10/28 12:33:34;;;;;;;13.87;3.27;;;24.20;99.90;;;;;;5052388;28;20260;-60
2022/10/28 12:36:21;;;;;;;10.77;2.80;;;24.20;99.90;;;;;;5051002;28;20204;-61
2022/10/28 12:38:55;;;;;;;15.03;3.03;;;24.20;99.90;;;;;;5051724;28;20206;-58
2022/10/28 12:41:25;;;;;;;10.40;2.77;;;24.20;99.90;;;;;;5052096;28;20236;-61
2022/10/28 12:43:59;;;;;;;12.50;3.30;;;24.20;99.90;;;;;;5051535;28;20676;-60
2022/10/28 12:46:34;;;;;;;9.20;2.87;;;24.20;99.90;;;;;;5051161;28;20270;-61
2022/10/28 12:49:09;;;;;;;14.37;3.00;;;24.00;99.90;;;;;;5045673;28;20205;-62
2022/10/28 12:51:39;;;;;;;15.43;3.47;;;24.00;99.90;;;;;;5048823;28;20279;-61
2022/10/28 12:54:14;;;;;;;10.20;2.80;;;24.00;99.90;;;;;;5051481;28;20213;-61
2022/10/28 12:56:48;;;;;;;10.43;3.30;;;24.00;99.90;;;;;;5051759;28;20225;-62
2022/10/28 12:59:22;;;;;;;14.63;3.63;;;23.90;99.90;;;;;;5051706;28;20243;-63
2022/10/28 13:01:50;;;;;;;12.20;3.23;;;23.80;99.90;;;;;;5051878;28;20809;-59